Terminal Aerodrome Forecast
Issued by NWS Bismarck, ND

Home | Current Version | Previous Version | Graphics & Text | Print | Product List | Glossary On
Versions: 1 2 3 4 5 6 7 8 9 10 11 12 13
000
FTUS43 KBIS 032339
TAFISN
TAF
KISN 032339Z 0400/0424 32011KT P6SM SCT100
     FM040200 VRB04KT P6SM SKC
     FM041300 13007KT P6SM SKC
     FM041500 17011KT P6SM SKC=

USA.gov is the U.S. government's official web portal to all federal, state and local government web resources and services.